Estación Meteorológica Peña el Pijo (Robertgarden) [ 02/03/23 02:44:50 CET ]

Fecha Hora Presion(HPa) Temp (°C) Humedad % Rocio (°C) Viento ( m/s) Direccion Lluvia 1Hora(mm) Lluvia 24H(mm) LLuvia Total(mm)
2010-Nov-16 01:01:13 1015.700 2.8 76 -1.0         2.07
2010-Nov-16 02:03:21 1015.600 3.0 76 -0.8         2.07
2010-Nov-16 03:01:17 1015.600 2.4 78 -1.1         2.07
2010-Nov-16 04:01:13 1015.700 0.9 82 -1.9         2.07
2010-Nov-16 05:01:12 1015.400 0.1 85 -2.1         2.07
2010-Nov-16 06:01:13 1015.600 -0.4 86 -2.4         2.07
2010-Nov-16 07:01:13 1015.600 -0.4 86 -2.4         2.07
2010-Nov-16 08:01:20 1015.700 -0.8 87 -2.7         2.07
2010-Nov-16 09:01:13 1016.000 0.7 89 -0.9         2.07
2010-Nov-16 10:01:18 1015.800 7.3 70 2.2         2.07
2010-Nov-16 11:01:13 1016.000 10.6 48 0.0         2.07
2010-Nov-16 12:01:17 1014.900 13.9 37 -0.7         2.07
2010-Nov-16 13:01:19 1014.100 15.6 31 -1.5         2.07
2010-Nov-16 14:01:16 1013.300 15.9 29 -2.3         2.07
2010-Nov-16 15:01:15 1012.200 16.1 26 -3.6         2.07
2010-Nov-16 16:01:18 1011.900 16.8 25 -3.6         2.07
2010-Nov-16 17:01:15 1011.700 11.5 27 -7.0         2.07
2010-Nov-16 18:01:13 1011.600 8.4 36 -5.9         2.07
2010-Nov-16 19:01:13 1011.600 4.9 47 -5.6         2.07
2010-Nov-16 20:01:19 1011.800 3.5 53 -5.2         2.07
2010-Nov-16 21:01:13 1011.700 1.8 61 -4.9         2.07
2010-Nov-16 22:01:16 1011.100 0.4 69 -4.6         2.07
2010-Nov-16 23:01:12 1010.500 -0.2 73 -4.5         2.07

Temperatura Máxima:16°    Temperatura Mínima:
Presión Máxima:1016.000 Hpa    Presión Mínima:1010.500 Hpa


Volver